Bridgewater, North Carolina
Current Conditions -  °F | °C
As of 11:35 AM on Friday 31 Oct 2014 (Local Time) from KMRN Reporting Station
Overcast Overcast  
Wind Chill: 51°   Ceiling: 1900
Heat Index: 51°   Visibility: 10mi
Dew Point: 39°   Wind: 3mph
Humidity: 65%   Direction: 340°NNW
Pressure: 29.99"   Gusts: NA
Location:  35.7567°N, 81.7518°W
Report Text: KMRN 311535Z AUTO 34003KT 10SM OVC019 10/04 A2999 RMK AO2 T01040040
Loading
Personal Weather Stations






























Interactive Weather Map
Tropical Storm Tracking
New forecast layout! Learn more

10-Day Weather Forecast

Advertisements
Track Severe Weather on mobile